createdAt,value
2023-03-14T00:01:21.632Z,7.10
2023-03-14T00:06:50.575Z,6.90
2023-03-14T00:11:56.499Z,6.90
2023-03-14T00:17:01.848Z,5.80
2023-03-14T00:22:07.248Z,7.10
2023-03-14T00:27:12.971Z,7.40
2023-03-14T00:32:18.375Z,7.60
2023-03-14T00:37:28.992Z,7.90
2023-03-14T00:42:34.868Z,7.40
2023-03-14T00:47:40.395Z,6.90
2023-03-14T00:52:49.734Z,6.90
2023-03-14T00:57:55.126Z,7.80
2023-03-14T01:03:00.893Z,7.40
2023-03-14T01:08:09.221Z,7.00
2023-03-14T01:13:14.713Z,7.60
2023-03-14T01:18:20.045Z,7.80
2023-03-14T01:23:25.703Z,7.40
2023-03-14T01:28:31.161Z,6.90
2023-03-14T01:33:36.824Z,7.10
2023-03-14T01:38:42.739Z,7.30
2023-03-14T01:43:50.598Z,7.30
2023-03-14T01:49:02.772Z,7.70
2023-03-14T01:54:14.843Z,7.60
2023-03-14T01:59:21.006Z,7.40
2023-03-14T02:04:33.794Z,6.80
2023-03-14T02:09:41.106Z,6.60
2023-03-14T02:14:49.424Z,7.40
2023-03-14T02:20:28.706Z,7.20
2023-03-14T02:25:45.852Z,6.30
2023-03-14T02:30:51.856Z,6.00
2023-03-14T02:36:00.965Z,6.90
2023-03-14T02:41:07.769Z,7.70
2023-03-14T02:46:19.295Z,8.50
2023-03-14T02:51:26.983Z,8.00
2023-03-14T02:56:32.628Z,12.90
2023-03-14T03:01:39.089Z,8.30
2023-03-14T03:06:44.804Z,7.40
2023-03-14T03:11:50.724Z,7.70
2023-03-14T03:16:59.352Z,7.10
2023-03-14T03:22:05.115Z,6.70
2023-03-14T03:27:11.096Z,6.30
2023-03-14T03:32:16.690Z,6.00
2023-03-14T03:37:22.161Z,6.20
2023-03-14T03:42:28.531Z,6.40
2023-03-14T03:47:34.246Z,6.50
2023-03-14T03:52:42.909Z,5.50
2023-03-14T03:57:51.084Z,6.00
2023-03-14T04:02:56.536Z,5.60
2023-03-14T04:08:03.162Z,5.60
2023-03-14T04:13:09.439Z,5.50
2023-03-14T04:18:16.957Z,5.70
2023-03-14T04:23:25.208Z,5.50
2023-03-14T04:28:31.012Z,5.80
2023-03-14T04:33:46.013Z,5.20
2023-03-14T04:38:53.430Z,5.80
2023-03-14T04:44:00.641Z,5.30
2023-03-14T04:49:06.607Z,5.20
2023-03-14T04:54:15.920Z,5.70
2023-03-14T04:59:21.664Z,6.00
2023-03-14T05:04:28.060Z,5.00
2023-03-14T05:09:50.075Z,5.10
2023-03-14T05:15:27.445Z,5.20
2023-03-14T05:20:56.416Z,4.90
2023-03-14T05:26:27.137Z,5.80
2023-03-14T05:31:40.183Z,5.30
2023-03-14T05:37:13.875Z,5.40
2023-03-14T05:42:42.661Z,5.60
2023-03-14T05:48:13.363Z,5.80
2023-03-14T05:53:45.239Z,5.70
2023-03-14T06:04:14.260Z,5.50
2023-03-14T06:09:21.030Z,5.30
2023-03-14T06:14:26.855Z,5.40
2023-03-14T06:19:32.887Z,4.50
2023-03-14T06:24:38.488Z,4.80
2023-03-14T06:29:44.129Z,4.60
2023-03-14T06:34:49.886Z,4.80
2023-03-14T06:39:58.888Z,5.10
2023-03-14T06:45:42.306Z,5.00
2023-03-14T06:50:48.534Z,4.40
2023-03-14T06:55:54.640Z,4.30
2023-03-14T07:01:00.686Z,4.10
2023-03-14T07:06:11.359Z,4.70
2023-03-14T07:11:18.705Z,4.10
2023-03-14T07:16:24.991Z,4.50
2023-03-14T07:21:33.017Z,4.30
2023-03-14T07:26:39.540Z,4.60
2023-03-14T07:31:45.381Z,4.50
2023-03-14T07:36:51.641Z,4.50
2023-03-14T07:41:58.458Z,3.90
2023-03-14T07:47:05.376Z,3.30
2023-03-14T07:52:11.047Z,3.20
2023-03-14T07:57:17.679Z,3.30
2023-03-14T08:02:23.427Z,3.10
2023-03-14T08:07:29.818Z,3.20
2023-03-14T08:12:35.468Z,3.40
2023-03-14T08:17:41.032Z,3.20
2023-03-14T08:22:46.592Z,3.30
2023-03-14T08:27:52.067Z,3.50
2023-03-14T08:32:59.105Z,3.20
2023-03-14T08:38:04.820Z,2.90
2023-03-14T08:43:10.363Z,3.80
2023-03-14T08:48:15.936Z,3.50
2023-03-14T08:53:23.329Z,3.80
2023-03-14T08:58:30.541Z,3.50
2023-03-14T09:03:35.923Z,3.40
2023-03-14T09:08:41.467Z,3.70
2023-03-14T09:13:46.884Z,3.20
2023-03-14T09:18:55.526Z,3.50
2023-03-14T09:24:00.915Z,3.50
2023-03-14T09:29:06.456Z,3.40
2023-03-14T09:34:11.759Z,3.40
2023-03-14T09:39:18.062Z,3.00
2023-03-14T09:44:28.182Z,3.50
2023-03-14T09:49:37.855Z,3.30
2023-03-14T09:54:47.500Z,3.20
2023-03-14T09:59:55.921Z,3.20
2023-03-14T10:05:06.659Z,2.90
2023-03-14T10:10:18.292Z,2.60
2023-03-14T10:15:28.726Z,2.40
2023-03-14T10:25:42.488Z,2.70
2023-03-14T10:30:48.442Z,3.30
2023-03-14T10:35:58.984Z,4.20
2023-03-14T10:46:15.576Z,2.40
2023-03-14T10:51:41.943Z,4.20
2023-03-14T10:56:56.808Z,5.30
2023-03-14T11:02:16.491Z,5.50
2023-03-14T11:07:29.341Z,3.70
2023-03-14T11:12:48.833Z,5.70
2023-03-14T11:18:17.136Z,4.40
2023-03-14T11:23:28.520Z,2.90
2023-03-14T11:28:39.179Z,6.30
2023-03-14T11:33:55.541Z,5.90
2023-03-14T11:39:01.652Z,3.50
2023-03-14T11:44:17.864Z,8.50
2023-03-14T11:49:36.989Z,4.10
2023-03-14T11:54:48.096Z,6.70
2023-03-14T11:59:59.039Z,4.00
2023-03-14T12:05:33.964Z,4.10
2023-03-14T12:10:43.200Z,4.90
2023-03-14T12:15:56.423Z,6.30
2023-03-14T12:21:04.553Z,3.40
2023-03-14T12:26:17.472Z,4.00
2023-03-14T12:31:42.732Z,3.80
2023-03-14T12:37:11.728Z,3.50
2023-03-14T12:42:27.451Z,12.60
2023-03-14T12:47:55.755Z,6.00
2023-03-14T12:53:28.367Z,4.80
2023-03-14T12:58:39.782Z,6.10
2023-03-14T13:03:48.984Z,5.30
2023-03-14T13:08:57.578Z,6.50
2023-03-14T13:14:03.289Z,4.50
2023-03-14T13:19:18.260Z,5.40
2023-03-14T13:24:26.725Z,8.50
2023-03-14T13:29:33.423Z,8.30
2023-03-14T13:34:38.955Z,10.10
2023-03-14T13:39:50.158Z,6.30
2023-03-14T13:50:00.851Z,5.30
2023-03-14T13:55:14.826Z,5.70
2023-03-14T14:00:27.818Z,5.40
2023-03-14T14:05:35.388Z,6.00
2023-03-14T14:10:41.824Z,6.40
2023-03-14T14:15:53.696Z,5.70
2023-03-14T14:20:59.816Z,5.80
2023-03-14T14:26:09.147Z,5.90
2023-03-14T14:31:26.238Z,7.10
2023-03-14T14:36:38.921Z,7.20
2023-03-14T14:41:45.033Z,11.20
2023-03-14T14:46:50.721Z,10.10
2023-03-14T14:52:05.470Z,8.10
2023-03-14T14:57:23.171Z,8.20
2023-03-14T15:02:36.653Z,8.10
2023-03-14T15:07:42.206Z,8.20
2023-03-14T15:12:50.733Z,8.10
2023-03-14T15:17:56.360Z,6.30
2023-03-14T15:23:01.756Z,5.70
2023-03-14T15:28:15.916Z,5.80
2023-03-14T15:33:22.978Z,5.50
2023-03-14T15:38:29.217Z,5.90
2023-03-14T15:43:35.174Z,4.70
2023-03-14T15:48:43.753Z,5.30
2023-03-14T15:53:50.103Z,5.80
2023-03-14T15:58:56.956Z,6.30
2023-03-14T16:04:03.666Z,6.30
2023-03-14T16:09:09.598Z,8.40
2023-03-14T16:14:15.352Z,7.60
2023-03-14T16:19:32.605Z,6.70
2023-03-14T16:24:41.248Z,7.10
2023-03-14T16:29:48.879Z,7.50
2023-03-14T16:34:54.758Z,9.60
2023-03-14T16:40:12.175Z,10.80
2023-03-14T16:45:19.102Z,7.80
2023-03-14T16:50:24.853Z,9.00
2023-03-14T16:55:30.308Z,13.30
2023-03-14T17:00:36.170Z,8.60
2023-03-14T17:05:47.141Z,10.60
2023-03-14T17:10:53.311Z,10.20
2023-03-14T17:16:00.455Z,16.90
2023-03-14T17:21:07.250Z,13.30
2023-03-14T17:26:13.413Z,18.20
2023-03-14T17:31:20.561Z,17.20
2023-03-14T17:36:30.401Z,22.20
2023-03-14T17:41:35.941Z,29.40
2023-03-14T17:46:41.664Z,24.70
2023-03-14T17:51:47.176Z,21.90
2023-03-14T17:56:52.575Z,20.00
2023-03-14T18:01:58.441Z,16.40
2023-03-14T18:07:04.488Z,15.00
2023-03-14T18:12:10.535Z,12.70
2023-03-14T18:17:16.383Z,10.40
2023-03-14T18:22:22.384Z,9.00
2023-03-14T18:27:28.367Z,14.80
2023-03-14T18:32:34.139Z,11.20
2023-03-14T18:37:39.916Z,11.10
2023-03-14T18:42:46.158Z,9.90
2023-03-14T18:47:51.821Z,10.10
2023-03-14T18:52:57.604Z,9.40
2023-03-14T18:58:03.182Z,10.40
2023-03-14T19:03:08.882Z,9.30
2023-03-14T19:08:15.356Z,8.30
2023-03-14T19:13:21.073Z,8.80
2023-03-14T19:18:27.091Z,10.90
2023-03-14T19:23:36.951Z,9.20
2023-03-14T19:28:42.313Z,8.90
2023-03-14T19:33:48.179Z,8.30
2023-03-14T19:38:54.829Z,8.20
2023-03-14T19:44:01.121Z,8.00
2023-03-14T19:49:06.747Z,7.70
2023-03-14T19:54:12.473Z,7.80
2023-03-14T19:59:17.979Z,9.10
2023-03-14T20:04:25.414Z,8.30
2023-03-14T20:09:32.174Z,8.30
2023-03-14T20:14:37.537Z,8.90
2023-03-14T20:19:46.156Z,9.30
2023-03-14T20:29:05.312Z,8.40
2023-03-14T20:34:10.966Z,7.80
2023-03-14T20:39:16.395Z,8.40
2023-03-14T20:44:22.008Z,9.70
2023-03-14T20:49:27.617Z,8.20
2023-03-14T20:54:33.568Z,8.20
2023-03-14T20:59:39.212Z,7.90
2023-03-14T21:04:44.866Z,8.70
2023-03-14T21:09:50.358Z,8.40
2023-03-14T21:14:55.753Z,7.40
2023-03-14T21:20:01.386Z,8.40
2023-03-14T21:25:07.836Z,8.70
2023-03-14T21:30:14.766Z,9.80
2023-03-14T21:35:20.573Z,8.60
2023-03-14T21:40:26.690Z,9.20
2023-03-14T21:45:32.198Z,9.30
2023-03-14T21:50:37.661Z,10.50
2023-03-14T21:55:44.463Z,10.30
2023-03-14T22:00:50.174Z,9.20
2023-03-14T22:05:55.621Z,9.60
2023-03-14T22:11:14.675Z,11.00
2023-03-14T22:16:30.609Z,10.80
2023-03-14T22:21:37.645Z,9.70
2023-03-14T22:26:43.467Z,10.40
2023-03-14T22:31:48.966Z,9.50
2023-03-14T22:36:54.328Z,9.30
2023-03-14T22:42:01.064Z,8.80
2023-03-14T22:47:07.121Z,8.30
2023-03-14T22:52:12.962Z,8.40
2023-03-14T22:57:18.280Z,9.10
2023-03-14T23:02:23.901Z,8.10
2023-03-14T23:07:29.453Z,8.20
2023-03-14T23:12:35.858Z,8.70
2023-03-14T23:17:41.904Z,8.60
2023-03-14T23:22:47.227Z,8.10
2023-03-14T23:27:54.173Z,8.10
2023-03-14T23:32:59.789Z,8.30
2023-03-14T23:38:05.400Z,9.00
2023-03-14T23:43:10.939Z,9.20
2023-03-14T23:48:16.305Z,10.00
2023-03-14T23:53:21.710Z,10.90
2023-03-14T23:58:27.339Z,9.40
